Time;durP1;ratioP1;P1;durP2;ratioP2;P2;SDS_P1;SDS_P2;PMS_P1;PMS_P2;Temp;Humidity;BMP_temperature;BMP_pressure;BME280_temperature;BME280_humidity;BME280_pressure;Samples;Min_cycle;Max_cycle;Signal;HPM_P1;HPM_P2
2023/08/15 00:00:54;;;;;;;6.60;3.67;;;20.70;67.80;;;;;;4968086;28;20202;-74
2023/08/15 00:03:21;;;;;;;7.17;3.70;;;20.70;67.80;;;;;;4968868;28;20510;-73
2023/08/15 00:05:48;;;;;;;6.10;3.65;;;20.70;67.90;;;;;;4968384;28;20122;-73
2023/08/15 00:08:15;;;;;;;7.43;3.58;;;20.70;67.90;;;;;;4968842;28;20911;-73
2023/08/15 00:10:43;;;;;;;6.22;3.78;;;20.60;68.00;;;;;;4969758;28;20058;-73
2023/08/15 00:13:10;;;;;;;7.43;3.95;;;20.60;68.00;;;;;;4968148;28;20090;-73
2023/08/15 00:15:37;;;;;;;6.23;3.73;;;20.60;68.00;;;;;;4968816;28;20596;-74
2023/08/15 00:18:05;;;;;;;6.00;3.83;;;20.50;68.00;;;;;;4968709;28;20051;-73
2023/08/15 00:20:32;;;;;;;6.38;4.50;;;20.50;68.20;;;;;;4969926;28;20055;-73
2023/08/15 00:22:59;;;;;;;8.07;4.30;;;20.50;68.30;;;;;;4968101;28;20895;-74
2023/08/15 00:25:26;;;;;;;6.85;4.07;;;20.40;68.40;;;;;;4969909;28;20751;-74
2023/08/15 00:27:54;;;;;;;6.50;4.13;;;20.40;68.50;;;;;;4951666;28;20048;-74
2023/08/15 00:30:21;;;;;;;7.03;3.95;;;20.30;68.60;;;;;;4952393;28;20059;-73
2023/08/15 00:32:48;;;;;;;7.95;4.10;;;20.30;68.60;;;;;;4967797;28;20052;-73
2023/08/15 00:35:17;;;;;;;7.72;4.90;;;20.30;68.60;;;;;;4951991;28;20114;-73
2023/08/15 00:37:44;;;;;;;7.57;4.15;;;20.30;68.60;;;;;;4968195;28;20170;-74
2023/08/15 00:40:11;;;;;;;5.40;3.77;;;20.30;68.50;;;;;;4968310;28;20047;-73
2023/08/15 00:42:40;;;;;;;7.45;3.80;;;20.30;68.50;;;;;;4951936;28;21005;-73
2023/08/15 00:45:09;;;;;;;6.75;4.13;;;20.30;68.50;;;;;;4967122;28;20082;-74
2023/08/15 00:47:37;;;;;;;7.13;4.50;;;20.20;68.70;;;;;;4967210;28;20174;-73
2023/08/15 00:50:08;;;;;;;7.43;4.75;;;20.10;68.80;;;;;;4967228;28;20489;-74
2023/08/15 00:53:28;;;;;;;6.43;3.97;;;20.10;68.90;;;;;;4967929;28;20055;-74
2023/08/15 00:56:21;;;;;;;6.30;4.47;;;20.00;68.80;;;;;;4951622;28;20055;-74
2023/08/15 00:58:48;;;;;;;8.68;4.55;;;20.00;68.80;;;;;;4967853;28;20417;-74
2023/08/15 01:01:18;;;;;;;7.60;4.65;;;20.00;69.30;;;;;;4967213;28;20158;-74
2023/08/15 01:03:46;;;;;;;9.60;5.05;;;20.00;69.40;;;;;;4951776;28;20150;-74
2023/08/15 01:06:14;;;;;;;8.43;5.40;;;19.90;69.40;;;;;;4967543;28;20062;-73
2023/08/15 01:08:41;;;;;;;8.05;4.75;;;19.90;69.60;;;;;;4967866;28;20051;-73
2023/08/15 01:11:08;;;;;;;10.23;5.70;;;19.80;69.60;;;;;;4951633;28;20051;-74
2023/08/15 01:13:44;;;;;;;8.70;5.78;;;19.80;69.70;;;;;;4969099;28;20052;-74
2023/08/15 01:16:15;;;;;;;10.00;5.50;;;19.80;70.00;;;;;;4968730;28;20138;-73
2023/08/15 01:18:48;;;;;;;12.17;6.83;;;19.80;69.90;;;;;;4967041;28;20494;-73
2023/08/15 01:21:21;;;;;;;10.93;6.88;;;19.70;69.90;;;;;;4951307;28;20050;-74
2023/08/15 01:23:51;;;;;;;11.27;6.63;;;19.70;70.10;;;;;;4966452;28;20063;-74
2023/08/15 01:26:18;;;;;;;8.90;6.20;;;19.70;69.90;;;;;;4966117;28;20071;-74
2023/08/15 01:28:45;;;;;;;10.45;6.05;;;19.70;69.80;;;;;;4949879;28;20055;-74
2023/08/15 01:31:23;;;;;;;9.60;7.00;;;19.70;69.80;;;;;;4965837;28;20478;-74
2023/08/15 01:33:58;;;;;;;11.60;7.38;;;19.70;70.10;;;;;;4967319;28;20205;-74
2023/08/15 01:36:32;;;;;;;12.02;7.57;;;19.70;70.10;;;;;;4949930;28;20175;-74
2023/08/15 01:39:04;;;;;;;11.07;7.00;;;19.70;70.00;;;;;;4953352;28;20189;-74
2023/08/15 01:41:36;;;;;;;13.45;7.13;;;19.70;70.10;;;;;;4970027;28;20093;-74
2023/08/15 01:44:05;;;;;;;10.97;7.67;;;19.70;69.90;;;;;;4972221;28;20059;-74
2023/08/15 01:46:32;;;;;;;11.40;7.88;;;19.70;70.30;;;;;;4972011;28;20066;-74
2023/08/15 01:48:59;;;;;;;12.52;7.57;;;19.60;70.30;;;;;;4970777;28;20545;-74
2023/08/15 01:51:26;;;;;;;13.98;8.55;;;19.60;70.30;;;;;;4954085;28;20059;-74
2023/08/15 01:53:54;;;;;;;13.45;8.43;;;19.60;70.50;;;;;;4954130;28;20058;-73
2023/08/15 01:56:22;;;;;;;12.70;7.87;;;19.60;70.40;;;;;;4954331;28;20059;-74
2023/08/15 01:58:49;;;;;;;11.30;7.22;;;19.60;70.60;;;;;;4970308;28;20063;-74
2023/08/15 02:01:16;;;;;;;11.20;7.57;;;19.60;70.60;;;;;;4953967;28;20052;-74
2023/08/15 02:03:43;;;;;;;12.75;7.88;;;19.60;70.50;;;;;;4970083;28;20521;-74
2023/08/15 02:06:10;;;;;;;12.95;8.70;;;19.60;70.50;;;;;;4970152;28;20048;-74
2023/08/15 02:08:37;;;;;;;11.17;8.13;;;19.60;70.80;;;;;;4953966;28;20043;-74
2023/08/15 02:11:05;;;;;;;12.40;7.93;;;19.60;70.90;;;;;;4970044;28;20047;-74
2023/08/15 02:13:35;;;;;;;11.00;7.63;;;19.60;70.90;;;;;;4970187;28;20573;-74
2023/08/15 02:16:02;;;;;;;9.98;7.15;;;19.60;70.90;;;;;;4970495;28;20514;-74
2023/08/15 02:18:30;;;;;;;11.48;8.00;;;19.60;70.80;;;;;;4954361;28;20134;-74
2023/08/15 02:20:57;;;;;;;13.43;8.43;;;19.50;70.90;;;;;;4970036;28;20505;-74
2023/08/15 02:23:24;;;;;;;11.30;7.78;;;19.60;71.00;;;;;;4951064;28;20064;-74
2023/08/15 02:25:51;;;;;;;11.18;7.90;;;19.50;71.10;;;;;;4950683;28;20135;-73
2023/08/15 02:28:19;;;;;;;10.18;7.38;;;19.50;71.10;;;;;;4950428;28;20148;-74
2023/08/15 02:30:47;;;;;;;12.60;7.75;;;19.50;71.30;;;;;;4950767;28;20132;-74
2023/08/15 02:33:14;;;;;;;12.13;8.43;;;19.50;71.30;;;;;;4934741;28;20142;-74
2023/08/15 02:35:42;;;;;;;13.02;8.52;;;19.50;71.20;;;;;;4934738;28;20606;-73
2023/08/15 02:38:09;;;;;;;15.27;8.93;;;19.50;71.70;;;;;;4950574;28;20091;-74
2023/08/15 02:40:38;;;;;;;11.95;7.93;;;19.50;71.70;;;;;;4934428;28;20075;-74
2023/08/15 02:43:05;;;;;;;11.43;8.05;;;19.50;71.80;;;;;;4950594;28;20142;-74
2023/08/15 02:45:32;;;;;;;13.27;8.83;;;19.50;71.70;;;;;;4934584;28;20587;-74
2023/08/15 02:48:01;;;;;;;11.65;8.27;;;19.50;71.80;;;;;;4950606;28;20082;-74
2023/08/15 02:50:29;;;;;;;15.65;8.35;;;19.50;71.80;;;;;;4934056;28;20131;-74
2023/08/15 02:53:05;;;;;;;11.27;8.80;;;19.50;72.20;;;;;;4950303;28;20138;-74
2023/08/15 02:55:33;;;;;;;14.13;8.57;;;19.50;72.20;;;;;;4950767;28;20071;-74
2023/08/15 02:58:01;;;;;;;20.07;10.50;;;19.50;72.40;;;;;;4949992;28;20062;-74
2023/08/15 03:00:28;;;;;;;15.68;10.63;;;19.50;72.30;;;;;;4951786;28;20062;-74
2023/08/15 03:03:00;;;;;;;17.52;11.60;;;19.50;73.20;;;;;;4933684;28;20205;-74
2023/08/15 03:05:28;;;;;;;16.20;10.90;;;19.50;73.90;;;;;;4934054;28;20055;-74
2023/08/15 03:07:57;;;;;;;15.07;10.95;;;19.50;74.50;;;;;;4950181;28;20051;-74
2023/08/15 03:10:24;;;;;;;14.63;10.80;;;19.50;75.00;;;;;;4965813;28;20721;-74
2023/08/15 03:12:51;;;;;;;15.32;11.20;;;19.60;75.20;;;;;;4951356;28;20079;-74
2023/08/15 03:15:18;;;;;;;18.42;12.35;;;19.60;75.40;;;;;;4950150;28;20134;-73
2023/08/15 03:17:45;;;;;;;15.73;11.55;;;19.60;75.80;;;;;;4933672;28;20056;-74
2023/08/15 03:20:14;;;;;;;18.10;12.45;;;19.60;76.10;;;;;;4933577;28;20560;-74
2023/08/15 03:23:16;;;;;;;16.07;11.90;;;19.70;76.70;;;;;;4934593;28;20047;-74
2023/08/15 03:25:43;;;;;;;19.52;13.18;;;19.70;76.70;;;;;;4934914;28;20055;-74
2023/08/15 03:28:10;;;;;;;18.63;14.20;;;19.70;77.20;;;;;;4945277;28;20058;-74
2023/08/15 03:30:37;;;;;;;17.77;13.85;;;19.70;78.10;;;;;;4953369;28;20130;-74
2023/08/15 03:33:05;;;;;;;17.15;11.95;;;19.70;78.60;;;;;;4969515;28;20530;-74
2023/08/15 03:35:35;;;;;;;16.17;12.13;;;19.80;78.50;;;;;;4953545;28;20061;-74
2023/08/15 03:38:02;;;;;;;19.38;12.20;;;19.80;78.30;;;;;;4970169;28;20047;-74
2023/08/15 03:40:29;;;;;;;15.50;11.80;;;19.80;78.30;;;;;;4969641;28;20546;-74
2023/08/15 03:42:57;;;;;;;16.38;11.35;;;19.80;78.40;;;;;;4953526;28;20059;-74
2023/08/15 03:45:26;;;;;;;19.10;12.10;;;19.80;78.40;;;;;;4969178;28;20051;-74
2023/08/15 03:47:53;;;;;;;19.10;11.83;;;19.70;78.60;;;;;;4969516;28;20771;-74
2023/08/15 03:50:20;;;;;;;15.48;11.43;;;19.70;78.60;;;;;;4953087;28;20079;-74
2023/08/15 03:52:48;;;;;;;17.13;11.82;;;19.70;78.50;;;;;;4953525;28;20035;-74
2023/08/15 03:55:16;;;;;;;16.90;12.45;;;19.70;78.60;;;;;;4952792;28;20083;-74
2023/08/15 03:57:45;;;;;;;18.88;11.98;;;19.70;78.70;;;;;;4970243;28;20055;-74
2023/08/15 04:00:14;;;;;;;16.63;11.97;;;19.70;79.10;;;;;;4968929;28;20585;-74
2023/08/15 04:02:41;;;;;;;18.13;12.50;;;19.70;79.20;;;;;;4967934;28;20054;-74
2023/08/15 04:05:09;;;;;;;17.88;11.73;;;19.80;79.20;;;;;;4952722;28;20055;-74
2023/08/15 04:07:36;;;;;;;17.83;12.20;;;19.80;79.20;;;;;;4968898;28;20075;-74
2023/08/15 04:10:05;;;;;;;16.40;11.90;;;19.80;79.10;;;;;;4969003;28;20048;-74
2023/08/15 04:12:33;;;;;;;16.37;10.47;;;19.90;79.20;;;;;;4953089;28;20168;-75
2023/08/15 04:15:00;;;;;;;15.85;11.82;;;19.80;79.10;;;;;;4969141;28;20077;-74
2023/08/15 04:17:29;;;;;;;17.33;11.60;;;19.80;79.10;;;;;;4969181;28;20051;-74
2023/08/15 04:19:58;;;;;;;16.83;11.85;;;19.80;79.10;;;;;;4943752;28;20358;-74
2023/08/15 04:22:27;;;;;;;20.27;11.27;;;19.90;79.20;;;;;;4950257;28;20550;-74
2023/08/15 04:24:54;;;;;;;15.83;11.13;;;19.90;79.20;;;;;;4965715;28;20047;-74
2023/08/15 04:27:22;;;;;;;16.42;11.35;;;19.80;79.10;;;;;;4953060;28;21110;-74
2023/08/15 04:29:50;;;;;;;16.15;10.90;;;19.90;79.20;;;;;;4952622;28;20102;-74
2023/08/15 04:32:17;;;;;;;15.30;10.63;;;19.90;79.30;;;;;;4952457;28;20082;-74
2023/08/15 04:34:44;;;;;;;17.33;11.27;;;19.90;79.50;;;;;;4952386;28;20130;-74
2023/08/15 04:37:13;;;;;;;16.97;11.87;;;19.90;79.20;;;;;;4967479;28;20059;-74
2023/08/15 04:39:41;;;;;;;16.83;11.90;;;19.90;79.70;;;;;;4968712;28;20577;-74
2023/08/15 04:42:09;;;;;;;16.98;11.18;;;19.80;79.70;;;;;;4952246;28;20047;-74
2023/08/15 04:44:37;;;;;;;15.93;10.23;;;19.70;80.30;;;;;;4968249;28;20055;-74
2023/08/15 04:47:05;;;;;;;15.63;10.25;;;19.70;80.20;;;;;;4968361;28;20143;-74
2023/08/15 04:49:33;;;;;;;15.53;10.40;;;19.70;79.90;;;;;;4952235;28;20043;-74
2023/08/15 04:52:01;;;;;;;15.15;9.20;;;19.70;80.10;;;;;;4952190;28;20051;-74
2023/08/15 04:54:28;;;;;;;17.42;9.77;;;19.70;80.10;;;;;;4968177;28;20091;-74
2023/08/15 04:56:55;;;;;;;13.35;8.80;;;19.70;80.00;;;;;;4952340;28;20058;-74
2023/08/15 04:59:22;;;;;;;12.23;8.95;;;19.70;79.90;;;;;;4969703;28;20593;-74
2023/08/15 05:01:52;;;;;;;13.10;8.27;;;19.70;79.70;;;;;;4968281;28;20097;-74
2023/08/15 05:04:19;;;;;;;11.73;7.22;;;19.60;79.70;;;;;;4967687;28;20051;-74
2023/08/15 05:06:46;;;;;;;13.25;8.30;;;19.50;79.80;;;;;;4952456;28;20150;-74
2023/08/15 05:09:12;;;;;;;14.27;7.95;;;19.50;79.60;;;;;;4967845;28;20106;-74
2023/08/15 05:11:40;;;;;;;15.57;7.80;;;19.50;79.60;;;;;;4951658;28;20990;-74
2023/08/15 05:14:07;;;;;;;11.70;7.47;;;19.50;79.60;;;;;;4954482;28;20051;-74
2023/08/15 05:16:34;;;;;;;16.88;7.72;;;19.50;79.60;;;;;;4951422;28;20051;-74
2023/08/15 05:19:03;;;;;;;12.52;6.88;;;19.50;79.40;;;;;;4963451;28;20440;-74
2023/08/15 05:21:30;;;;;;;12.13;7.72;;;19.50;79.40;;;;;;4963480;28;20062;-74
2023/08/15 05:23:57;;;;;;;11.45;7.25;;;19.50;79.20;;;;;;4958153;28;20534;-74
2023/08/15 05:26:24;;;;;;;11.93;6.70;;;19.50;79.20;;;;;;4944481;28;20051;-74
2023/08/15 05:28:52;;;;;;;11.45;6.82;;;19.50;79.10;;;;;;4951139;28;20044;-74
2023/08/15 05:31:20;;;;;;;10.85;6.47;;;19.50;79.00;;;;;;4948014;28;20119;-74
2023/08/15 05:33:47;;;;;;;11.90;6.82;;;19.50;79.00;;;;;;4947233;28;20056;-74
2023/08/15 05:36:16;;;;;;;10.05;6.18;;;19.50;79.00;;;;;;4962487;28;20055;-74
2023/08/15 05:38:43;;;;;;;11.37;6.57;;;19.40;79.00;;;;;;4952813;28;20051;-74
2023/08/15 05:41:10;;;;;;;11.50;6.35;;;19.40;79.00;;;;;;4954809;28;20047;-74
2023/08/15 05:43:37;;;;;;;10.55;5.88;;;19.40;79.10;;;;;;4965110;28;20424;-74
2023/08/15 05:46:04;;;;;;;9.85;5.63;;;19.40;79.10;;;;;;4962705;28;20039;-74
2023/08/15 05:48:32;;;;;;;9.30;5.43;;;19.40;79.00;;;;;;4961009;28;20051;-74
2023/08/15 05:50:59;;;;;;;9.37;5.40;;;19.40;78.90;;;;;;4964428;28;20047;-74
2023/08/15 05:53:27;;;;;;;11.18;5.28;;;19.40;78.90;;;;;;4962220;28;20055;-74
2023/08/15 05:55:54;;;;;;;10.80;5.65;;;19.40;78.90;;;;;;4942613;28;20058;-74
2023/08/15 05:58:21;;;;;;;11.32;5.55;;;19.40;78.70;;;;;;4952248;28;20083;-74
2023/08/15 06:00:48;;;;;;;9.00;5.47;;;19.40;78.70;;;;;;4963583;28;20087;-74
2023/08/15 06:03:15;;;;;;;11.83;5.17;;;19.40;78.70;;;;;;4964099;28;20052;-74
2023/08/15 06:05:42;;;;;;;10.93;5.35;;;19.40;79.00;;;;;;4962383;28;20109;-74
2023/08/15 06:08:09;;;;;;;9.68;5.60;;;19.30;78.90;;;;;;4963062;28;20928;-74
2023/08/15 06:10:38;;;;;;;11.10;5.43;;;19.30;79.00;;;;;;4965765;28;20052;-74
2023/08/15 06:13:05;;;;;;;8.05;4.47;;;19.30;79.20;;;;;;4966604;28;20047;-74
2023/08/15 06:15:32;;;;;;;10.10;5.07;;;19.30;79.30;;;;;;4959304;28;20070;-73
2023/08/15 06:17:59;;;;;;;10.75;5.13;;;19.30;79.10;;;;;;4951734;28;20055;-73
2023/08/15 06:20:27;;;;;;;11.23;5.05;;;19.30;79.10;;;;;;4952589;28;20058;-73
2023/08/15 06:22:55;;;;;;;10.30;5.22;;;19.30;79.10;;;;;;4963178;28;20051;-73
2023/08/15 06:25:23;;;;;;;9.05;4.55;;;19.30;79.20;;;;;;4962595;28;21067;-73
2023/08/15 06:27:51;;;;;;;10.40;5.00;;;19.30;79.30;;;;;;4961920;28;20055;-72
2023/08/15 06:30:18;;;;;;;9.68;4.10;;;19.30;79.40;;;;;;4958671;28;20055;-72
2023/08/15 06:32:45;;;;;;;9.30;4.90;;;19.30;79.50;;;;;;4963044;28;20486;-73
2023/08/15 06:35:12;;;;;;;10.43;4.75;;;19.30;79.60;;;;;;4958015;28;20614;-73
2023/08/15 06:37:39;;;;;;;7.35;3.65;;;19.30;79.70;;;;;;4961922;28;20170;-73
2023/08/15 06:40:08;;;;;;;10.33;3.80;;;19.30;79.70;;;;;;4966282;28;20057;-73
2023/08/15 06:42:36;;;;;;;10.23;3.80;;;19.30;80.00;;;;;;4962150;28;20056;-72
2023/08/15 06:45:08;;;;;;;8.85;3.30;;;19.40;80.00;;;;;;4962664;28;20067;-73
2023/08/15 06:47:35;;;;;;;9.45;3.47;;;19.40;80.20;;;;;;4958286;28;20048;-73
2023/08/15 06:50:03;;;;;;;9.55;3.67;;;19.40;80.00;;;;;;4958530;28;20078;-72
2023/08/15 06:52:30;;;;;;;8.90;3.30;;;19.40;80.10;;;;;;4956936;28;20070;-73
2023/08/15 06:54:57;;;;;;;10.55;2.95;;;19.40;80.00;;;;;;4965401;28;20064;-73
2023/08/15 06:57:25;;;;;;;9.43;3.35;;;19.40;80.20;;;;;;4962595;28;20087;-72
2023/08/15 06:59:52;;;;;;;8.05;3.20;;;19.50;80.30;;;;;;4957657;28;20058;-72
2023/08/15 07:02:21;;;;;;;10.10;3.20;;;19.50;80.30;;;;;;4964325;28;20058;-74
2023/08/15 07:04:48;;;;;;;8.57;3.00;;;19.50;80.40;;;;;;4960934;28;20925;-73
2023/08/15 07:07:16;;;;;;;9.48;2.42;;;19.50;80.50;;;;;;4967255;28;20114;-74
2023/08/15 07:09:50;;;;;;;9.73;2.72;;;19.60;80.70;;;;;;4943468;28;20051;-73
2023/08/15 07:12:18;;;;;;;12.82;3.20;;;19.70;80.80;;;;;;4954323;28;20131;-73
2023/08/15 07:14:47;;;;;;;7.72;3.00;;;19.70;80.70;;;;;;4949899;28;20514;-73
2023/08/15 07:17:14;;;;;;;8.93;2.80;;;19.70;80.80;;;;;;4962117;28;20056;-74
2023/08/15 07:19:42;;;;;;;10.40;2.95;;;19.80;80.80;;;;;;4967252;28;20054;-73
2023/08/15 07:22:10;;;;;;;9.85;3.05;;;19.80;80.80;;;;;;4969351;28;20062;-72
2023/08/15 07:24:38;;;;;;;8.57;2.60;;;19.90;80.80;;;;;;4968805;28;20051;-74
2023/08/15 07:27:05;;;;;;;10.00;2.92;;;19.90;80.70;;;;;;4968775;28;20051;-74
2023/08/15 07:29:32;;;;;;;9.67;2.70;;;19.90;80.70;;;;;;4968191;28;20051;-73
2023/08/15 07:31:59;;;;;;;8.48;3.00;;;20.00;80.70;;;;;;4968430;28;20056;-73
2023/08/15 07:34:41;;;;;;;9.25;3.30;;;20.00;80.80;;;;;;4970621;28;20517;-74
2023/08/15 07:37:10;;;;;;;9.63;3.75;;;20.00;80.50;;;;;;4963304;28;20114;-73
2023/08/15 07:39:37;;;;;;;8.27;2.17;;;20.00;80.80;;;;;;4968716;28;20574;-74
2023/08/15 07:42:05;;;;;;;9.40;2.97;;;20.10;80.80;;;;;;4969620;28;20065;-74
2023/08/15 07:44:32;;;;;;;10.00;3.28;;;20.10;80.70;;;;;;4965092;28;20051;-73
2023/08/15 07:46:59;;;;;;;8.65;3.08;;;20.10;80.90;;;;;;4969628;28;20138;-74
2023/08/15 07:49:26;;;;;;;9.70;3.25;;;20.20;80.40;;;;;;4968640;28;20449;-73
2023/08/15 07:51:55;;;;;;;10.10;3.15;;;20.30;80.30;;;;;;4952453;28;20055;-74
2023/08/15 07:54:23;;;;;;;6.70;2.30;;;20.30;80.40;;;;;;4953067;28;20059;-73
2023/08/15 07:56:49;;;;;;;7.25;3.00;;;20.30;79.80;;;;;;4967028;28;20153;-73
2023/08/15 07:59:16;;;;;;;4.85;2.28;;;20.30;79.20;;;;;;4963113;28;20599;-73
2023/08/15 08:01:44;;;;;;;9.75;3.20;;;20.30;78.90;;;;;;4978163;28;20070;-73
2023/08/15 08:04:11;;;;;;;9.50;2.70;;;20.30;78.30;;;;;;4961068;28;20051;-73
2023/08/15 08:06:38;;;;;;;9.00;2.90;;;20.30;78.20;;;;;;4952644;28;20054;-73
2023/08/15 08:09:06;;;;;;;6.57;2.40;;;20.30;78.20;;;;;;4968133;28;20081;-73
2023/08/15 08:11:33;;;;;;;6.35;2.55;;;20.30;78.00;;;;;;4969389;28;20059;-74
2023/08/15 08:14:01;;;;;;;7.95;3.13;;;20.30;78.30;;;;;;4967738;28;20051;-74
2023/08/15 08:16:28;;;;;;;6.75;3.10;;;20.30;78.20;;;;;;4967598;28;20070;-74
2023/08/15 08:18:55;;;;;;;6.97;2.13;;;20.40;78.10;;;;;;4969563;28;20051;-74
2023/08/15 08:21:23;;;;;;;8.48;2.55;;;20.40;78.60;;;;;;4967234;28;20129;-73
2023/08/15 08:23:51;;;;;;;8.75;3.03;;;20.50;78.70;;;;;;4963166;28;20055;-74
2023/08/15 08:26:19;;;;;;;9.55;2.70;;;20.50;78.70;;;;;;4959668;28;20047;-74
2023/08/15 08:28:46;;;;;;;8.55;3.42;;;20.50;78.90;;;;;;4966316;28;20195;-73
2023/08/15 08:31:13;;;;;;;7.80;3.40;;;20.60;78.50;;;;;;4947381;28;20056;-73
2023/08/15 08:33:41;;;;;;;7.38;3.33;;;20.60;78.10;;;;;;4969328;28;20043;-73
2023/08/15 08:36:09;;;;;;;7.57;3.30;;;20.70;78.30;;;;;;4968499;28;20055;-73
2023/08/15 08:38:36;;;;;;;9.88;3.70;;;20.70;78.20;;;;;;4964085;28;20478;-73
2023/08/15 08:41:03;;;;;;;6.55;3.63;;;20.70;78.20;;;;;;4963163;28;20055;-73
2023/08/15 08:43:33;;;;;;;9.63;3.80;;;20.70;78.00;;;;;;4970039;28;20563;-73
2023/08/15 08:46:04;;;;;;;9.15;4.05;;;20.80;77.70;;;;;;4961295;28;20146;-73
2023/08/15 08:48:33;;;;;;;8.55;3.70;;;20.80;77.60;;;;;;4968046;28;20052;-74
2023/08/15 08:51:02;;;;;;;8.57;3.85;;;20.80;77.60;;;;;;4949331;28;20131;-73
2023/08/15 08:53:29;;;;;;;7.40;4.25;;;20.80;77.90;;;;;;4958910;28;21011;-73
2023/08/15 08:55:56;;;;;;;6.60;3.90;;;20.80;77.90;;;;;;4969503;28;20053;-74
2023/08/15 08:58:27;;;;;;;6.40;3.40;;;20.90;77.90;;;;;;4959613;28;20055;-73
2023/08/15 09:00:57;;;;;;;8.60;3.75;;;20.90;77.20;;;;;;4957953;28;20066;-73
2023/08/15 09:03:24;;;;;;;7.63;3.63;;;20.90;77.00;;;;;;4949037;28;20148;-73
2023/08/15 09:05:52;;;;;;;8.45;3.08;;;20.90;76.80;;;;;;4963778;28;21165;-74
2023/08/15 09:08:20;;;;;;;6.40;3.53;;;20.90;77.10;;;;;;4962838;28;20055;-74
2023/08/15 09:10:47;;;;;;;6.60;3.20;;;20.90;77.20;;;;;;4959432;28;20414;-73
2023/08/15 09:13:22;;;;;;;5.93;3.20;;;20.90;76.90;;;;;;4961343;28;20063;-72
2023/08/15 09:15:49;;;;;;;8.15;4.03;;;21.00;76.80;;;;;;4961137;28;20055;-72
2023/08/15 09:18:22;;;;;;;8.82;3.38;;;21.00;76.50;;;;;;4957270;28;20438;-73
2023/08/15 09:20:49;;;;;;;7.17;3.20;;;21.00;76.80;;;;;;4958798;28;20490;-75
2023/08/15 09:23:17;;;;;;;6.80;3.15;;;21.00;77.00;;;;;;4956147;28;20058;-74
2023/08/15 09:25:47;;;;;;;5.55;3.08;;;21.10;77.00;;;;;;4961386;28;20048;-73
2023/08/15 09:28:15;;;;;;;7.82;3.13;;;21.10;76.80;;;;;;4959217;28;20051;-74
2023/08/15 09:30:52;;;;;;;6.32;3.63;;;21.10;75.90;;;;;;4960068;28;20054;-73
2023/08/15 09:33:21;;;;;;;6.57;3.40;;;21.10;76.00;;;;;;4958505;28;20075;-74
2023/08/15 09:35:49;;;;;;;7.18;3.38;;;21.20;76.00;;;;;;4956639;28;20052;-73
2023/08/15 09:38:16;;;;;;;7.13;2.80;;;21.20;75.90;;;;;;4958130;28;20052;-73
2023/08/15 09:40:48;;;;;;;6.05;2.70;;;21.20;75.70;;;;;;4948165;28;20056;-73
2023/08/15 09:43:16;;;;;;;6.97;2.55;;;21.30;74.70;;;;;;4956525;28;20146;-72
2023/08/15 09:45:43;;;;;;;8.13;2.87;;;21.30;74.70;;;;;;4957489;28;21013;-73
2023/08/15 09:48:11;;;;;;;5.88;3.03;;;21.30;74.90;;;;;;4955399;28;20139;-74
2023/08/15 09:50:41;;;;;;;5.82;2.58;;;21.40;75.00;;;;;;4959757;28;20054;-72
2023/08/15 09:53:09;;;;;;;5.57;2.63;;;21.40;74.30;;;;;;4977172;28;20054;-72
2023/08/15 09:55:37;;;;;;;6.85;2.72;;;21.50;74.10;;;;;;4966261;28;20058;-72
2023/08/15 09:58:05;;;;;;;6.20;3.13;;;21.50;73.50;;;;;;4972562;28;20055;-72
2023/08/15 10:00:32;;;;;;;6.30;2.42;;;21.50;73.60;;;;;;4966499;28;20501;-72
2023/08/15 10:03:01;;;;;;;6.75;3.00;;;21.50;73.00;;;;;;4969151;28;20066;-72
2023/08/15 10:05:32;;;;;;;5.07;1.77;;;21.50;72.70;;;;;;4971769;28;20734;-72
2023/08/15 10:08:01;;;;;;;6.55;2.60;;;21.50;72.50;;;;;;4966167;28;20154;-71
2023/08/15 10:10:31;;;;;;;7.00;2.07;;;21.50;72.70;;;;;;4969542;28;20130;-72
2023/08/15 10:13:00;;;;;;;5.53;2.88;;;21.40;72.10;;;;;;4969954;28;20111;-71
2023/08/15 10:15:30;;;;;;;8.07;3.22;;;21.40;72.20;;;;;;4970065;28;20122;-72
2023/08/15 10:17:59;;;;;;;5.68;2.22;;;21.40;72.60;;;;;;4969998;28;20047;-71
2023/08/15 10:20:26;;;;;;;6.45;2.22;;;21.40;72.90;;;;;;4971216;28;20101;-72
2023/08/15 10:22:54;;;;;;;6.93;2.43;;;21.40;73.10;;;;;;4971083;28;20130;-72
2023/08/15 10:25:35;;;;;;;6.28;2.53;;;21.40;73.40;;;;;;4970038;28;20047;-71
2023/08/15 10:28:07;;;;;;;7.70;3.30;;;21.40;73.50;;;;;;4970690;28;20051;-72
2023/08/15 10:30:37;;;;;;;5.57;2.40;;;21.40;73.40;;;;;;4969479;28;20050;-71
2023/08/15 10:33:18;;;;;;;8.00;2.88;;;21.50;73.40;;;;;;4965805;28;20126;-71
2023/08/15 10:35:50;;;;;;;7.60;2.90;;;21.50;73.00;;;;;;4959850;28;20051;-72
2023/08/15 10:38:19;;;;;;;6.28;2.10;;;21.50;73.10;;;;;;4953640;28;20107;-72
2023/08/15 10:40:51;;;;;;;8.57;2.72;;;21.50;72.30;;;;;;4966193;28;20048;-71
2023/08/15 10:43:18;;;;;;;7.00;2.50;;;21.50;72.50;;;;;;4959463;28;20600;-72
2023/08/15 10:45:49;;;;;;;6.00;2.00;;;21.50;72.30;;;;;;4952103;28;20973;-71
2023/08/15 10:48:35;;;;;;;5.53;1.90;;;21.50;72.70;;;;;;4969770;28;20108;-72
2023/08/15 10:51:03;;;;;;;5.07;2.10;;;21.50;72.00;;;;;;4961553;28;20050;-71
2023/08/15 10:53:30;;;;;;;5.65;1.98;;;21.60;72.50;;;;;;4946352;28;20071;-72
2023/08/15 10:56:01;;;;;;;5.88;1.92;;;21.70;72.70;;;;;;4965174;28;20051;-72
2023/08/15 10:58:29;;;;;;;6.95;2.33;;;21.70;72.00;;;;;;4960888;28;20050;-71
2023/08/15 11:00:56;;;;;;;5.77;2.20;;;21.70;71.10;;;;;;4952606;28;20066;-71
2023/08/15 11:03:24;;;;;;;7.03;2.22;;;21.80;71.30;;;;;;4960809;28;20526;-72
2023/08/15 11:05:51;;;;;;;6.28;1.92;;;21.80;71.00;;;;;;4950086;28;20155;-71
2023/08/15 11:08:20;;;;;;;9.32;2.40;;;21.80;70.90;;;;;;4967245;28;20055;-70
2023/08/15 11:10:49;;;;;;;6.30;2.10;;;21.90;71.00;;;;;;4962427;28;20055;-71
2023/08/15 11:13:18;;;;;;;6.53;2.27;;;21.90;71.00;;;;;;4960961;28;20055;-71
2023/08/15 11:15:45;;;;;;;7.32;1.92;;;21.90;70.60;;;;;;4962212;28;20067;-71
2023/08/15 11:18:20;;;;;;;7.15;2.28;;;21.90;70.60;;;;;;4959611;28;20083;-72
2023/08/15 11:20:47;;;;;;;7.03;1.67;;;21.90;70.60;;;;;;4952822;28;20054;-71
2023/08/15 11:23:15;;;;;;;6.32;1.92;;;21.90;70.50;;;;;;4949933;28;20154;-71
2023/08/15 11:25:42;;;;;;;7.17;2.40;;;21.90;70.70;;;;;;4958997;28;20062;-72
2023/08/15 11:28:09;;;;;;;6.55;2.30;;;21.90;70.70;;;;;;4949857;28;20057;-72
2023/08/15 11:30:38;;;;;;;7.35;2.38;;;21.90;70.70;;;;;;4968086;28;20051;-72
2023/08/15 11:33:06;;;;;;;7.60;2.08;;;21.90;70.60;;;;;;4968164;28;20146;-73
2023/08/15 11:35:33;;;;;;;6.40;2.30;;;21.90;70.60;;;;;;4968657;28;20051;-72
2023/08/15 11:38:01;;;;;;;5.30;1.83;;;21.90;70.60;;;;;;4966378;28;20055;-72
2023/08/15 11:40:30;;;;;;;8.40;2.53;;;21.90;70.80;;;;;;4967955;28;20068;-72
2023/08/15 11:42:57;;;;;;;7.80;2.08;;;21.90;71.20;;;;;;4949766;28;20043;-72
2023/08/15 11:45:24;;;;;;;6.10;2.10;;;21.90;71.50;;;;;;4968546;28;20601;-71
2023/08/15 11:47:59;;;;;;;5.40;2.13;;;22.00;71.10;;;;;;4967772;28;20522;-72
2023/08/15 11:50:27;;;;;;;7.57;2.40;;;22.00;71.00;;;;;;4969907;28;20134;-72
2023/08/15 11:52:55;;;;;;;6.22;2.17;;;22.00;71.40;;;;;;4964640;28;20541;-72
2023/08/15 11:55:22;;;;;;;7.18;2.50;;;22.00;71.50;;;;;;4966645;28;20051;-72
2023/08/15 11:57:50;;;;;;;7.97;2.95;;;22.10;71.50;;;;;;4964536;28;20059;-72
2023/08/15 12:00:18;;;;;;;7.30;2.70;;;22.10;71.70;;;;;;4966637;28;20222;-72
2023/08/15 12:02:48;;;;;;;7.40;2.90;;;22.20;71.60;;;;;;4966743;28;20151;-71
2023/08/15 12:05:17;;;;;;;8.75;2.97;;;22.20;71.50;;;;;;4966742;28;20540;-72
2023/08/15 12:07:45;;;;;;;9.07;3.03;;;22.30;70.70;;;;;;4969530;28;20446;-72
2023/08/15 12:10:16;;;;;;;6.70;2.67;;;22.30;70.70;;;;;;4967643;28;20106;-72
2023/08/15 12:12:44;;;;;;;5.80;2.00;;;22.40;71.10;;;;;;4966841;28;20091;-72
2023/08/15 12:15:13;;;;;;;6.33;2.33;;;22.40;71.20;;;;;;4967634;28;20051;-72
2023/08/15 12:17:41;;;;;;;6.13;2.20;;;22.30;71.00;;;;;;4950611;28;20089;-72
2023/08/15 12:20:11;;;;;;;6.50;3.30;;;22.30;71.10;;;;;;4966638;28;20058;-73
2023/08/15 12:22:40;;;;;;;9.23;3.20;;;22.30;70.90;;;;;;4965582;28;20556;-73
2023/08/15 12:25:08;;;;;;;7.95;2.50;;;22.20;71.20;;;;;;4968051;28;20058;-74
2023/08/15 12:27:36;;;;;;;10.93;2.80;;;22.20;71.10;;;;;;4953308;28;20549;-72
2023/08/15 12:30:03;;;;;;;7.75;3.03;;;22.10;71.30;;;;;;4959067;28;20489;-73
2023/08/15 12:32:31;;;;;;;8.23;3.65;;;22.10;71.30;;;;;;4960517;28;20182;-72
2023/08/15 12:34:58;;;;;;;5.78;2.58;;;22.10;71.20;;;;;;4959870;28;20055;-72
2023/08/15 12:37:26;;;;;;;7.20;3.20;;;22.00;71.90;;;;;;4959682;28;20134;-72
2023/08/15 12:39:54;;;;;;;6.17;2.67;;;22.00;72.70;;;;;;4964194;28;20051;-72
2023/08/15 12:42:22;;;;;;;8.75;3.33;;;22.00;72.80;;;;;;4943392;28;20058;-73
2023/08/15 12:44:48;;;;;;;8.60;3.65;;;22.10;73.10;;;;;;4966262;28;20062;-73
2023/08/15 12:47:15;;;;;;;7.22;3.50;;;22.10;73.50;;;;;;4950471;28;20051;-73